Time;durP1;ratioP1;P1;durP2;ratioP2;P2;SDS_P1;SDS_P2;PMS_P1;PMS_P2;Temp;Humidity;BMP_temperature;BMP_pressure;BME280_temperature;BME280_humidity;BME280_pressure;Samples;Min_cycle;Max_cycle;Signal;HPM_P1;HPM_P2
2024/03/12 00:01:10;;;;;;;37.20;26.70;;;;;;;7.89;98.15;95768.30;109050;1270;22551;-73
2024/03/12 00:03:50;;;;;;;38.70;27.00;;;;;;;7.88;97.92;95769.63;109067;1273;22535;-73
2024/03/12 00:06:22;;;;;;;45.10;28.70;;;;;;;7.81;97.69;95763.59;109095;1273;22525;-74
2024/03/12 00:08:58;;;;;;;47.10;26.70;;;;;;;7.76;97.93;95767.03;109059;1273;22519;-73
2024/03/12 00:11:29;;;;;;;43.00;29.70;;;;;;;7.74;98.06;95765.77;109114;1273;22641;-73
2024/03/12 00:14:03;;;;;;;42.10;28.50;;;;;;;7.73;98.31;95762.23;108966;1275;22517;-73
2024/03/12 00:16:35;;;;;;;40.00;27.40;;;;;;;7.74;98.53;95760.77;108958;1275;22597;-73
2024/03/12 00:19:09;;;;;;;54.50;29.10;;;;;;;7.76;98.55;95760.80;108985;1253;22514;-73
2024/03/12 00:21:45;;;;;;;79.60;30.10;;;;;;;7.73;98.63;95758.91;108989;1269;22520;-73
2024/03/12 00:24:18;;;;;;;49.70;28.10;;;;;;;7.75;98.74;95757.70;108982;1275;22567;-73
2024/03/12 00:26:49;;;;;;;40.60;28.20;;;;;;;7.70;98.64;95756.41;108976;1275;22470;-73
2024/03/12 00:29:26;;;;;;;52.60;35.50;;;;;;;7.66;98.53;95754.94;108946;1275;22479;-73
2024/03/12 00:31:57;;;;;;;51.90;28.60;;;;;;;7.60;98.39;95756.64;108938;1273;22660;-73
2024/03/12 00:34:32;;;;;;;48.50;28.60;;;;;;;7.52;98.54;95753.81;108974;1275;22569;-73
2024/03/12 00:37:03;;;;;;;38.50;28.20;;;;;;;7.48;98.76;95751.33;109005;1275;22687;-73
2024/03/12 00:39:35;;;;;;;37.00;26.50;;;;;;;7.49;99.04;95751.02;109026;1274;22511;-73
2024/03/12 00:42:06;;;;;;;37.30;27.90;;;;;;;7.55;99.28;95753.05;108975;1269;25431;-73
2024/03/12 00:44:38;;;;;;;34.20;26.00;;;;;;;7.57;99.51;95746.89;108952;1275;22552;-73
2024/03/12 00:47:11;;;;;;;37.40;28.00;;;;;;;7.63;99.71;95747.60;108973;1275;22529;-73
2024/03/12 00:49:45;;;;;;;48.20;28.90;;;;;;;7.69;99.89;95747.77;108994;1275;22733;-73
2024/03/12 00:52:17;;;;;;;57.10;27.50;;;;;;;7.73;99.76;95743.45;108978;1271;22535;-73
2024/03/12 00:54:50;;;;;;;53.10;29.40;;;;;;;7.71;99.62;95748.12;108938;1268;22527;-73
2024/03/12 00:57:22;;;;;;;42.70;30.10;;;;;;;7.72;99.85;95749.15;109018;1275;22867;-73
2024/03/12 00:59:54;;;;;;;37.80;27.40;;;;;;;7.75;99.94;95745.98;108965;1268;22524;-73
2024/03/12 01:02:31;;;;;;;37.60;27.20;;;;;;;7.78;99.87;95745.05;108984;1270;22641;-73
2024/03/12 01:05:04;;;;;;;38.10;28.40;;;;;;;7.78;99.77;95748.70;108944;1269;25079;-73
2024/03/12 01:07:39;;;;;;;37.00;26.60;;;;;;;7.79;99.83;95745.63;108965;1271;22691;-73
2024/03/12 01:10:12;;;;;;;50.60;27.30;;;;;;;7.82;99.83;95739.67;109009;1268;22559;-73
2024/03/12 01:12:43;;;;;;;37.40;27.20;;;;;;;7.84;99.87;95739.01;109085;1251;22587;-73
2024/03/12 01:15:14;;;;;;;42.70;26.10;;;;;;;7.85;99.96;95740.16;109077;1273;25942;-73
2024/03/12 01:17:45;;;;;;;41.70;28.70;;;;;;;7.84;99.88;95740.70;109089;1273;22565;-74
2024/03/12 01:20:20;;;;;;;36.50;27.20;;;;;;;7.85;99.91;95734.93;109051;1273;24309;-73
2024/03/12 01:22:53;;;;;;;36.20;26.80;;;;;;;7.86;99.91;95733.23;109077;1273;25279;-73
2024/03/12 01:25:28;;;;;;;34.70;26.20;;;;;;;7.84;99.86;95726.60;109082;1270;25339;-73
2024/03/12 01:28:00;;;;;;;32.60;24.80;;;;;;;7.82;99.57;95730.19;109023;1266;22530;-73
2024/03/12 01:30:31;;;;;;;39.90;25.70;;;;;;;7.77;99.64;95730.19;109073;1273;22516;-73
2024/03/12 01:33:06;;;;;;;75.10;27.40;;;;;;;7.70;99.69;95724.23;109047;1273;22511;-73
2024/03/12 01:35:38;;;;;;;49.90;32.50;;;;;;;7.64;99.58;95725.42;109084;1269;22533;-73
2024/03/12 01:38:09;;;;;;;32.00;24.20;;;;;;;7.52;99.27;95727.66;109076;1266;22468;-73
2024/03/12 01:40:41;;;;;;;28.70;22.70;;;;;;;7.39;99.20;95725.35;109055;1273;23704;-73
2024/03/12 01:43:12;;;;;;;34.20;23.20;;;;;;;7.31;99.41;95726.23;109063;1266;22541;-73
2024/03/12 01:45:45;;;;;;;68.50;23.40;;;;;;;7.25;99.55;95727.18;109081;1273;22564;-73
2024/03/12 01:48:19;;;;;;;97.60;25.50;;;;;;;7.22;99.88;95728.11;109055;1266;22452;-73
2024/03/12 01:50:50;;;;;;;41.80;23.10;;;;;;;7.24;100.00;95727.52;109098;1273;22476;-73
2024/03/12 01:53:21;;;;;;;33.40;21.70;;;;;;;7.25;100.00;95729.19;109042;1266;24231;-73
2024/03/12 01:55:53;;;;;;;26.60;20.60;;;;;;;7.26;100.00;95729.17;109089;1270;22533;-73
2024/03/12 01:58:24;;;;;;;27.00;21.60;;;;;;;7.29;100.00;95727.20;109113;1270;22520;-73
2024/03/12 02:00:55;;;;;;;27.80;21.00;;;;;;;7.32;100.00;95723.80;109055;1267;23770;-73
2024/03/12 02:03:26;;;;;;;35.80;22.60;;;;;;;7.36;100.00;95720.48;109066;1273;22817;-73
2024/03/12 02:06:00;;;;;;;34.50;23.80;;;;;;;7.36;100.00;95724.65;109052;1266;22552;-73
2024/03/12 02:08:32;;;;;;;36.20;25.30;;;;;;;7.34;100.00;95730.59;109041;1273;22552;-74
2024/03/12 02:11:03;;;;;;;33.10;24.50;;;;;;;7.34;100.00;95731.69;109050;1266;22491;-73
2024/03/12 02:13:35;;;;;;;31.60;22.10;;;;;;;7.40;100.00;95731.04;109088;1273;22518;-73
2024/03/12 02:16:08;;;;;;;27.30;22.00;;;;;;;7.45;100.00;95729.25;109050;1267;25278;-73
2024/03/12 02:18:39;;;;;;;28.00;21.10;;;;;;;7.47;100.00;95728.71;109098;1273;22863;-74
2024/03/12 02:21:10;;;;;;;43.70;22.60;;;;;;;7.48;100.00;95730.88;109097;1266;22534;-73
2024/03/12 02:23:44;;;;;;;38.90;24.00;;;;;;;7.49;100.00;95727.02;109084;1273;23809;-74
2024/03/12 02:26:14;;;;;;;61.00;23.70;;;;;;;7.51;100.00;95728.63;109042;1273;22499;-74
2024/03/12 02:28:45;;;;;;;34.60;21.80;;;;;;;7.49;100.00;95725.65;109101;1273;22520;-73
2024/03/12 02:31:19;;;;;;;28.40;20.80;;;;;;;7.43;100.00;95725.89;109070;1273;22546;-73
2024/03/12 02:33:54;;;;;;;28.70;22.20;;;;;;;7.38;100.00;95719.04;109027;1265;25417;-73
2024/03/12 02:36:28;;;;;;;28.20;20.50;;;;;;;7.40;100.00;95716.74;109061;1273;24154;-74
2024/03/12 02:38:59;;;;;;;28.50;22.00;;;;;;;7.45;100.00;95721.08;109067;1270;23120;-73
2024/03/12 02:41:31;;;;;;;29.80;20.70;;;;;;;7.45;100.00;95716.91;109050;1270;25943;-73
2024/03/12 02:44:04;;;;;;;33.40;21.40;;;;;;;7.49;100.00;95715.72;109043;1273;25060;-74
2024/03/12 02:46:35;;;;;;;32.00;23.10;;;;;;;7.50;100.00;95711.95;109086;1255;22547;-74
2024/03/12 02:49:07;;;;;;;25.60;20.20;;;;;;;7.53;100.00;95711.45;109071;1266;22539;-74
2024/03/12 02:51:38;;;;;;;26.60;21.20;;;;;;;7.56;100.00;95710.95;109050;1273;22528;-73
2024/03/12 02:54:09;;;;;;;26.50;19.40;;;;;;;7.58;100.00;95708.91;109029;1273;22581;-73
2024/03/12 02:56:40;;;;;;;25.20;19.40;;;;;;;7.53;100.00;95713.13;109039;1273;25460;-73
2024/03/12 02:59:13;;;;;;;27.80;19.70;;;;;;;7.46;100.00;95709.48;109085;1266;24251;-73
2024/03/12 03:01:45;;;;;;;38.40;20.20;;;;;;;7.41;100.00;95708.14;109080;1266;22520;-73
2024/03/12 03:04:21;;;;;;;43.20;19.30;;;;;;;7.37;100.00;95704.77;109079;1256;22510;-73
2024/03/12 03:07:00;;;;;;;25.30;20.40;;;;;;;7.35;100.00;95705.27;109078;1273;22562;-73
2024/03/12 03:09:32;;;;;;;24.00;19.20;;;;;;;7.39;100.00;95705.53;109070;1269;22510;-74
2024/03/12 03:12:06;;;;;;;25.00;19.20;;;;;;;7.37;100.00;95705.02;109040;1273;22550;-74
2024/03/12 03:14:37;;;;;;;24.20;18.90;;;;;;;7.33;100.00;95704.81;109077;1273;22648;-74
2024/03/12 03:17:08;;;;;;;26.10;20.10;;;;;;;7.30;100.00;95706.25;109012;1266;22588;-73
2024/03/12 03:19:41;;;;;;;30.50;19.90;;;;;;;7.32;100.00;95705.08;109088;1269;24216;-73
2024/03/12 03:22:15;;;;;;;53.70;21.50;;;;;;;7.36;100.00;95704.31;109002;1273;25326;-74
2024/03/12 03:24:46;;;;;;;30.50;19.90;;;;;;;7.33;100.00;95710.55;109087;1273;22552;-73
2024/03/12 03:27:19;;;;;;;27.30;19.00;;;;;;;7.29;100.00;95709.21;109075;1273;22965;-74
2024/03/12 03:29:56;;;;;;;24.80;18.90;;;;;;;7.28;100.00;95709.76;109045;1266;22547;-74
2024/03/12 03:32:28;;;;;;;24.20;19.90;;;;;;;7.32;100.00;95711.20;109006;1273;23468;-74
2024/03/12 03:35:02;;;;;;;23.00;18.70;;;;;;;7.35;100.00;95714.29;109075;1255;22519;-73
2024/03/12 03:37:36;;;;;;;30.60;19.00;;;;;;;7.36;100.00;95712.95;109096;1267;22607;-73
2024/03/12 03:40:17;;;;;;;30.60;20.90;;;;;;;7.39;100.00;95713.02;109053;1273;22734;-73
2024/03/12 03:42:51;;;;;;;32.00;20.00;;;;;;;7.43;100.00;95713.71;108994;1273;24165;-73
2024/03/12 03:45:30;;;;;;;34.50;20.50;;;;;;;7.43;100.00;95708.58;109054;1273;22511;-73
2024/03/12 03:48:03;;;;;;;23.50;18.80;;;;;;;7.44;100.00;95711.75;109057;1273;22507;-73
2024/03/12 03:50:35;;;;;;;23.50;18.00;;;;;;;7.45;100.00;95714.27;109069;1273;25311;-74
2024/03/12 03:53:08;;;;;;;23.00;18.40;;;;;;;7.46;100.00;95712.26;109011;1273;23752;-73
2024/03/12 03:55:42;;;;;;;22.00;17.90;;;;;;;7.44;100.00;95714.73;109039;1266;22545;-74
2024/03/12 03:58:16;;;;;;;44.70;19.00;;;;;;;7.40;100.00;95714.80;109046;1273;22511;-73
2024/03/12 04:00:50;;;;;;;25.60;18.80;;;;;;;7.39;100.00;95710.70;109078;1266;25294;-73
2024/03/12 04:03:25;;;;;;;29.80;19.80;;;;;;;7.37;100.00;95710.20;109061;1273;22514;-73
2024/03/12 04:05:58;;;;;;;22.50;17.40;;;;;;;7.35;100.00;95714.27;109041;1266;22616;-73
2024/03/12 04:08:32;;;;;;;25.10;19.30;;;;;;;7.27;100.00;95713.45;109108;1266;22688;-73
2024/03/12 04:11:09;;;;;;;23.00;18.30;;;;;;;7.22;100.00;95713.14;109072;1266;22580;-73
2024/03/12 04:13:40;;;;;;;22.20;18.00;;;;;;;7.27;100.00;95713.08;109040;1265;22523;-74
2024/03/12 04:16:14;;;;;;;25.30;16.50;;;;;;;7.28;100.00;95716.87;109085;1270;22517;-73
2024/03/12 04:18:48;;;;;;;45.10;18.90;;;;;;;7.20;100.00;95715.05;109079;1273;22549;-74
2024/03/12 04:21:19;;;;;;;31.70;19.30;;;;;;;7.13;100.00;95714.21;109054;1269;22507;-74
2024/03/12 04:23:55;;;;;;;27.70;19.80;;;;;;;7.05;100.00;95715.86;109076;1271;23862;-74
2024/03/12 04:26:28;;;;;;;24.20;18.60;;;;;;;6.95;100.00;95725.34;109074;1266;23747;-73
2024/03/12 04:29:00;;;;;;;26.40;20.30;;;;;;;6.88;100.00;95721.54;109045;1273;22532;-73
2024/03/12 04:31:33;;;;;;;24.00;18.20;;;;;;;6.84;100.00;95723.85;109075;1273;22512;-73
2024/03/12 04:34:08;;;;;;;26.10;18.40;;;;;;;6.80;100.00;95725.15;109049;1270;22521;-73
2024/03/12 04:36:40;;;;;;;24.00;18.10;;;;;;;6.76;100.00;95727.13;109110;1250;22538;-73
2024/03/12 04:39:30;;;;;;;23.90;18.40;;;;;;;6.73;100.00;95732.56;109073;1273;22845;-73
2024/03/12 04:42:05;;;;;;;22.20;18.70;;;;;;;6.67;100.00;95733.98;109038;1271;25461;-73
2024/03/12 04:44:42;;;;;;;20.50;17.10;;;;;;;6.62;100.00;95740.66;109052;1273;22514;-73
2024/03/12 04:47:15;;;;;;;28.80;17.40;;;;;;;6.59;100.00;95741.98;109046;1273;22466;-74
2024/03/12 04:49:49;;;;;;;42.60;17.60;;;;;;;6.58;100.00;95738.57;109048;1273;23256;-74
2024/03/12 04:52:21;;;;;;;24.20;17.20;;;;;;;6.54;100.00;95747.97;109017;1273;23873;-74
2024/03/12 04:54:51;;;;;;;21.80;16.80;;;;;;;6.51;100.00;95749.52;109060;1273;22517;-74
2024/03/12 04:57:27;;;;;;;23.60;17.70;;;;;;;6.51;100.00;95753.75;109080;1266;22518;-73
2024/03/12 04:59:59;;;;;;;24.50;16.60;;;;;;;6.49;100.00;95752.48;109056;1272;22621;-73
2024/03/12 05:02:30;;;;;;;40.50;19.50;;;;;;;6.48;100.00;95753.39;109051;1269;22529;-74
2024/03/12 05:05:02;;;;;;;30.70;18.00;;;;;;;6.48;100.00;95756.60;109074;1273;22514;-73
2024/03/12 05:07:35;;;;;;;23.50;18.00;;;;;;;6.45;100.00;95760.86;109043;1273;23984;-73
2024/03/12 05:10:07;;;;;;;25.00;18.20;;;;;;;6.42;100.00;95761.10;109069;1273;25939;-73
2024/03/12 05:12:41;;;;;;;24.40;17.20;;;;;;;6.47;100.00;95760.70;109068;1266;22551;-74
2024/03/12 05:15:12;;;;;;;26.80;17.10;;;;;;;6.52;100.00;95762.64;109047;1273;22561;-74
2024/03/12 05:17:45;;;;;;;44.20;19.00;;;;;;;6.47;100.00;95765.39;109050;1266;25266;-73
2024/03/12 05:20:22;;;;;;;21.60;17.80;;;;;;;6.43;100.00;95764.83;109042;1270;22520;-73
2024/03/12 05:22:57;;;;;;;26.10;18.40;;;;;;;6.41;100.00;95767.64;109067;1266;22515;-74
2024/03/12 05:25:38;;;;;;;24.30;17.80;;;;;;;6.43;100.00;95772.46;109075;1273;22547;-73
2024/03/12 05:28:12;;;;;;;26.00;17.40;;;;;;;6.47;100.00;95774.66;109074;1273;22535;-74
2024/03/12 05:30:48;;;;;;;38.70;17.70;;;;;;;6.48;100.00;95775.08;109070;1273;22532;-73
2024/03/12 05:33:27;;;;;;;35.20;19.90;;;;;;;6.49;100.00;95779.83;109051;1273;22527;-73
2024/03/12 05:35:57;;;;;;;;;;;;;;;6.50;100.00;95784.61;109083;1266;22519;-73
2024/03/12 05:38:34;;;;;;;24.70;16.90;;;;;;;6.49;100.00;95782.14;109043;1273;25415;-73
2024/03/12 05:41:25;;;;;;;22.00;17.90;;;;;;;6.49;100.00;95785.40;109056;1273;25271;-73
2024/03/12 05:49:40;;;;;;;51.70;20.90;;;;;;;6.53;100.00;95788.38;109087;1273;22866;-73
2024/03/12 05:52:15;;;;;;;25.40;17.60;;;;;;;6.53;100.00;95787.27;109040;1273;23560;-74
2024/03/12 05:54:46;;;;;;;25.80;18.40;;;;;;;6.51;100.00;95792.70;109066;1273;25946;-74
2024/03/12 05:57:19;;;;;;;24.00;18.00;;;;;;;6.48;100.00;95793.30;109072;1273;24312;-73
2024/03/12 05:59:52;;;;;;;23.50;17.40;;;;;;;6.47;100.00;95790.55;109088;1266;22528;-73
2024/03/12 06:02:26;;;;;;;51.80;20.60;;;;;;;6.46;100.00;95793.34;109016;1273;22523;-74
2024/03/12 06:05:00;;;;;;;30.00;18.80;;;;;;;6.43;100.00;95798.37;109065;1266;24304;-74
2024/03/12 06:07:31;;;;;;;24.20;18.00;;;;;;;6.40;100.00;95793.13;109102;1273;22522;-74
2024/03/12 06:10:02;;;;;;;23.40;18.50;;;;;;;6.40;100.00;95796.65;109072;1273;22485;-74
2024/03/12 06:12:33;;;;;;;21.90;15.50;;;;;;;6.41;100.00;95801.91;109069;1273;26696;-73
2024/03/12 06:15:07;;;;;;;23.20;16.90;;;;;;;6.40;100.00;95802.60;109095;1271;24587;-74
2024/03/12 06:17:38;;;;;;;27.70;18.30;;;;;;;6.41;100.00;95802.34;109070;1272;25418;-73
2024/03/12 06:20:13;;;;;;;24.40;17.80;;;;;;;6.43;100.00;95802.95;109054;1272;22527;-73
2024/03/12 06:22:44;;;;;;;23.30;17.70;;;;;;;6.45;100.00;95805.31;109044;1273;22532;-73
2024/03/12 06:25:23;;;;;;;25.70;18.70;;;;;;;6.50;100.00;95805.52;109079;1256;22572;-73
2024/03/12 06:28:05;;;;;;;21.40;16.40;;;;;;;6.53;100.00;95813.44;109037;1270;22528;-73
2024/03/12 06:30:36;;;;;;;28.10;18.80;;;;;;;6.51;100.00;95812.77;109084;1273;22485;-73
2024/03/12 06:33:08;;;;;;;33.70;19.90;;;;;;;6.48;100.00;95817.15;109059;1266;22464;-73
2024/03/12 06:35:41;;;;;;;35.30;18.80;;;;;;;6.47;100.00;95818.63;109038;1266;22532;-73
2024/03/12 06:38:15;;;;;;;27.20;17.60;;;;;;;6.51;100.00;95821.09;109056;1270;22511;-73
2024/03/12 06:40:49;;;;;;;22.30;17.60;;;;;;;6.54;100.00;95819.02;109039;1273;22525;-73
2024/03/12 06:43:23;;;;;;;24.20;18.50;;;;;;;6.62;100.00;95821.14;109043;1271;24951;-73
2024/03/12 06:45:56;;;;;;;23.20;17.90;;;;;;;6.76;100.00;95822.11;109050;1269;24214;-74
2024/03/12 06:48:29;;;;;;;24.40;17.70;;;;;;;6.85;100.00;95824.78;109039;1270;22507;-73
2024/03/12 06:51:06;;;;;;;34.70;19.50;;;;;;;6.90;100.00;95827.13;109063;1273;22579;-73
2024/03/12 06:53:40;;;;;;;50.20;19.50;;;;;;;6.90;100.00;95826.87;109056;1273;22511;-73
2024/03/12 06:56:17;;;;;;;37.80;19.60;;;;;;;6.91;100.00;95832.52;109036;1266;23148;-73
2024/03/12 06:58:48;;;;;;;23.50;18.40;;;;;;;6.93;100.00;95839.45;109058;1273;22518;-73
2024/03/12 07:01:25;;;;;;;24.60;18.50;;;;;;;6.91;100.00;95837.63;109047;1273;22525;-72
2024/03/12 07:04:00;;;;;;;21.20;16.60;;;;;;;6.88;100.00;95839.52;109048;1273;22515;-73
2024/03/12 07:06:36;;;;;;;24.20;17.90;;;;;;;6.85;100.00;95839.08;109102;1266;22847;-73
2024/03/12 07:09:09;;;;;;;38.00;20.50;;;;;;;6.86;100.00;95839.74;109034;1272;22534;-73
2024/03/12 07:11:41;;;;;;;31.40;20.90;;;;;;;6.88;100.00;95839.31;109086;1273;22547;-73
2024/03/12 07:14:23;;;;;;;28.10;20.20;;;;;;;6.92;100.00;95836.40;109072;1273;22516;-73
2024/03/12 07:16:59;;;;;;;23.20;18.50;;;;;;;6.97;100.00;95835.94;109039;1273;22514;-73
2024/03/12 07:19:32;;;;;;;22.60;17.60;;;;;;;7.00;100.00;95832.70;109068;1266;22541;-73
2024/03/12 07:22:07;;;;;;;25.50;18.00;;;;;;;7.00;100.00;95839.55;109051;1270;22565;-73
2024/03/12 07:24:42;;;;;;;35.40;18.80;;;;;;;6.96;100.00;95838.41;109086;1272;25397;-73
2024/03/12 07:27:16;;;;;;;45.90;21.50;;;;;;;6.98;100.00;95838.04;109041;1273;24200;-73
2024/03/12 07:29:49;;;;;;;28.00;20.30;;;;;;;6.98;100.00;95841.41;109077;1272;25971;-73
2024/03/12 07:32:24;;;;;;;24.70;18.30;;;;;;;7.05;100.00;95841.52;109061;1272;24000;-73
2024/03/12 07:34:57;;;;;;;24.40;18.10;;;;;;;7.04;100.00;95842.27;109016;1273;22514;-73
2024/03/12 07:37:29;;;;;;;24.70;17.20;;;;;;;6.98;100.00;95848.16;109072;1273;22662;-73
2024/03/12 07:40:02;;;;;;;28.70;19.30;;;;;;;6.87;100.00;95851.17;109052;1266;22560;-73
2024/03/12 07:42:38;;;;;;;27.70;19.40;;;;;;;6.81;100.00;95854.16;109038;1273;25418;-73
2024/03/12 07:45:11;;;;;;;21.20;17.00;;;;;;;6.79;100.00;95855.66;109040;1271;24347;-73
2024/03/12 07:47:42;;;;;;;21.80;17.40;;;;;;;6.79;100.00;95856.86;109106;1266;25443;-73
2024/03/12 07:50:19;;;;;;;26.20;19.10;;;;;;;6.83;100.00;95857.15;109062;1273;22491;-73
2024/03/12 07:52:55;;;;;;;24.80;17.50;;;;;;;6.84;100.00;95858.73;109072;1273;22537;-73
2024/03/12 07:55:28;;;;;;;26.70;18.50;;;;;;;6.87;100.00;95864.77;109058;1273;25407;-74
2024/03/12 07:58:00;;;;;;;31.60;19.60;;;;;;;6.81;100.00;95866.60;109070;1266;22528;-74
2024/03/12 08:00:39;;;;;;;25.60;17.70;;;;;;;6.78;100.00;95865.77;109171;1266;22643;-74
2024/03/12 08:03:13;;;;;;;29.10;19.10;;;;;;;6.76;100.00;95869.37;107338;1273;2302225;-73
2024/03/12 08:05:47;;;;;;;27.10;19.50;;;;;;;6.85;100.00;95867.20;109069;1266;24161;-74
2024/03/12 08:08:19;;;;;;;25.50;19.10;;;;;;;6.94;100.00;95864.95;109067;1273;24189;-74
2024/03/12 08:10:51;;;;;;;26.60;19.30;;;;;;;7.02;100.00;95865.69;109047;1271;25450;-74
2024/03/12 08:13:25;;;;;;;22.40;15.70;;;;;;;7.13;100.00;95867.14;109055;1273;22528;-74
2024/03/12 08:15:58;;;;;;;27.50;17.40;;;;;;;7.21;100.00;95870.05;109044;1269;22519;-74
2024/03/12 08:18:32;;;;;;;32.50;19.60;;;;;;;7.21;100.00;95875.27;109087;1273;24215;-74
2024/03/12 08:21:06;;;;;;;26.80;17.70;;;;;;;7.21;100.00;95878.95;109036;1270;22531;-73
2024/03/12 08:23:37;;;;;;;23.00;18.30;;;;;;;7.23;100.00;95879.89;109102;1266;22475;-73
2024/03/12 08:26:10;;;;;;;26.80;19.50;;;;;;;7.20;100.00;95882.07;109063;1273;22704;-75
2024/03/12 08:28:46;;;;;;;24.60;18.90;;;;;;;7.15;100.00;95883.04;109064;1273;25499;-73
2024/03/12 08:31:17;;;;;;;26.40;19.20;;;;;;;7.24;100.00;95881.99;109073;1272;22515;-74
2024/03/12 08:33:50;;;;;;;25.40;19.90;;;;;;;7.37;100.00;95881.05;109088;1273;22522;-74
2024/03/12 08:36:23;;;;;;;24.90;19.00;;;;;;;7.54;100.00;95882.14;109059;1273;22543;-73
2024/03/12 08:38:57;;;;;;;28.60;20.20;;;;;;;7.69;100.00;95878.84;109037;1272;22536;-74
2024/03/12 08:41:29;;;;;;;31.30;20.00;;;;;;;7.80;100.00;95881.65;109016;1267;22514;-73
2024/03/12 08:44:02;;;;;;;31.90;20.70;;;;;;;7.84;100.00;95882.24;109084;1273;26486;-73
2024/03/12 08:46:36;;;;;;;26.20;19.20;;;;;;;7.84;100.00;95878.86;109105;1272;24119;-73
2024/03/12 08:49:10;;;;;;;28.10;20.90;;;;;;;7.89;100.00;95885.53;109104;1250;22802;-74
2024/03/12 08:51:41;;;;;;;28.20;21.20;;;;;;;7.98;100.00;95884.22;109053;1273;22544;-74
2024/03/12 08:54:14;;;;;;;26.30;19.00;;;;;;;8.01;100.00;95884.92;109052;1273;22452;-73
2024/03/12 08:56:48;;;;;;;32.80;18.40;;;;;;;7.95;100.00;95889.27;109098;1273;22533;-74
2024/03/12 08:59:20;;;;;;;31.50;19.10;;;;;;;7.88;100.00;95886.95;109095;1273;22513;-74
2024/03/12 09:01:57;;;;;;;25.70;19.60;;;;;;;7.77;100.00;95892.08;109064;1271;23874;-74
2024/03/12 09:04:31;;;;;;;25.40;17.80;;;;;;;7.68;100.00;95896.74;109094;1273;24185;-73
2024/03/12 09:07:05;;;;;;;25.20;18.50;;;;;;;7.64;100.00;95902.42;109101;1272;22529;-74
2024/03/12 09:09:39;;;;;;;26.40;18.50;;;;;;;7.51;100.00;95907.22;109070;1270;22522;-74
2024/03/12 09:12:11;;;;;;;29.00;19.90;;;;;;;7.37;100.00;95905.26;109065;1273;22504;-73
2024/03/12 09:14:47;;;;;;;30.10;20.10;;;;;;;7.38;100.00;95905.15;109075;1273;23123;-73
2024/03/12 09:17:20;;;;;;;27.90;19.70;;;;;;;7.52;100.00;95905.78;109077;1269;22511;-74
2024/03/12 09:19:53;;;;;;;32.30;19.30;;;;;;;7.67;100.00;95906.98;109051;1269;24426;-73
2024/03/12 09:22:24;;;;;;;30.50;19.50;;;;;;;7.84;100.00;95908.48;109067;1272;22574;-74
2024/03/12 09:24:56;;;;;;;28.50;19.30;;;;;;;7.94;100.00;95907.23;109090;1273;22543;-74
2024/03/12 09:27:26;;;;;;;35.00;21.20;;;;;;;7.84;100.00;95909.05;109075;1273;22557;-74
2024/03/12 09:30:00;;;;;;;25.50;16.50;;;;;;;7.77;100.00;95914.23;109041;1273;22550;-74
2024/03/12 09:32:31;;;;;;;31.20;19.60;;;;;;;7.77;100.00;95914.62;109060;1266;24383;-73
2024/03/12 09:35:04;;;;;;;31.20;19.70;;;;;;;7.74;100.00;95915.84;109099;1272;24216;-74
2024/03/12 09:37:40;;;;;;;26.40;19.30;;;;;;;7.74;100.00;95919.69;109104;1273;22503;-74
2024/03/12 09:40:14;;;;;;;30.10;21.80;;;;;;;7.73;100.00;95920.06;109036;1273;25984;-73
2024/03/12 09:42:48;;;;;;;31.70;19.90;;;;;;;7.77;100.00;95920.73;109068;1266;22562;-73
2024/03/12 09:45:24;;;;;;;32.80;21.80;;;;;;;7.78;100.00;95920.46;109052;1273;22515;-73
2024/03/12 09:47:58;;;;;;;59.50;22.20;;;;;;;7.82;100.00;95922.32;109042;1266;22535;-73
2024/03/12 09:50:31;;;;;;;28.50;19.90;;;;;;;7.84;100.00;95925.09;109084;1271;22521;-74
2024/03/12 09:53:05;;;;;;;29.10;19.70;;;;;;;7.81;100.00;95925.70;109074;1272;24326;-74
2024/03/12 09:55:45;;;;;;;31.20;21.40;;;;;;;7.76;100.00;95928.13;109072;1272;22600;-74
2024/03/12 09:58:21;;;;;;;29.40;19.70;;;;;;;7.76;100.00;95928.08;109066;1270;25064;-74
2024/03/12 10:00:53;;;;;;;30.50;20.70;;;;;;;7.81;100.00;95928.45;109055;1273;22560;-74
2024/03/12 10:03:29;;;;;;;31.10;21.10;;;;;;;7.90;100.00;95929.33;109047;1272;22538;-74
2024/03/12 10:06:02;;;;;;;28.80;20.20;;;;;;;7.99;100.00;95930.35;109075;1273;22580;-74
2024/03/12 10:08:36;;;;;;;34.70;21.10;;;;;;;8.06;100.00;95929.13;109124;1273;22511;-73
2024/03/12 10:11:09;;;;;;;32.10;22.10;;;;;;;8.17;100.00;95929.71;109069;1273;22522;-73
2024/03/12 10:13:41;;;;;;;40.20;22.80;;;;;;;8.26;100.00;95928.72;109047;1273;22469;-73
2024/03/12 10:16:27;;;;;;;35.30;22.10;;;;;;;8.28;100.00;95929.43;109073;1266;22524;-73
2024/03/12 10:19:18;;;;;;;29.70;20.60;;;;;;;8.32;100.00;95926.50;109091;1273;23100;-73
2024/03/12 10:21:49;;;;;;;31.80;22.00;;;;;;;8.40;100.00;95926.34;109070;1273;25265;-73
2024/03/12 10:24:22;;;;;;;30.80;21.80;;;;;;;8.46;100.00;95926.39;109075;1253;22547;-74
2024/03/12 10:27:05;;;;;;;34.60;21.70;;;;;;;8.50;100.00;95923.80;109045;1273;23925;-73
2024/03/12 10:29:38;;;;;;;36.80;22.50;;;;;;;8.54;100.00;95924.02;109052;1272;22520;-74
2024/03/12 10:32:24;;;;;;;45.50;24.10;;;;;;;8.56;100.00;95928.58;109027;1273;23843;-73
2024/03/12 10:34:56;;;;;;;33.00;21.00;;;;;;;8.53;100.00;95923.49;109045;1270;22511;-73
2024/03/12 10:37:34;;;;;;;29.50;21.10;;;;;;;8.48;100.00;95927.05;109065;1273;25414;-73
2024/03/12 10:40:17;;;;;;;32.20;21.30;;;;;;;8.42;100.00;95924.09;109121;1273;22466;-73
2024/03/12 10:42:57;;;;;;;29.00;21.40;;;;;;;8.41;100.00;95921.62;109035;1272;22586;-74
2024/03/12 10:45:32;;;;;;;35.10;23.40;;;;;;;8.34;100.00;95917.36;109059;1273;22917;-73
2024/03/12 10:48:14;;;;;;;32.30;21.60;;;;;;;8.28;100.00;95916.55;109082;1273;22659;-73
2024/03/12 10:50:47;;;;;;;38.40;24.60;;;;;;;8.20;100.00;95918.98;109057;1273;23131;-74
2024/03/12 10:53:24;;;;;;;33.90;22.40;;;;;;;8.14;100.00;95922.70;109032;1266;22537;-73
2024/03/12 10:55:58;;;;;;;34.50;23.10;;;;;;;8.13;100.00;95921.23;109084;1273;22534;-73
2024/03/12 10:58:30;;;;;;;30.30;21.10;;;;;;;8.21;100.00;95928.14;109082;1270;22494;-73
2024/03/12 11:01:06;;;;;;;33.00;22.40;;;;;;;8.25;100.00;95923.65;109053;1273;22538;-74
2024/03/12 11:03:43;;;;;;;31.80;22.50;;;;;;;8.22;100.00;95929.14;109053;1273;22512;-73
2024/03/12 11:06:16;;;;;;;31.20;20.80;;;;;;;8.19;100.00;95925.42;109056;1273;22475;-73
2024/03/12 11:08:50;;;;;;;32.10;22.90;;;;;;;8.24;100.00;95927.27;109077;1273;22519;-74
2024/03/12 11:11:23;;;;;;;27.70;19.60;;;;;;;8.24;100.00;95926.35;109032;1273;22582;-73
2024/03/12 11:14:01;;;;;;;34.30;23.20;;;;;;;8.15;100.00;95927.45;109062;1273;22532;-73
2024/03/12 11:16:39;;;;;;;28.80;20.10;;;;;;;8.14;100.00;95928.93;109054;1269;22518;-73
2024/03/12 11:19:29;;;;;;;29.10;20.80;;;;;;;8.10;100.00;95927.98;109106;1273;24212;-74
2024/03/12 11:22:12;;;;;;;29.80;20.90;;;;;;;7.98;100.00;95928.14;109033;1253;22518;-73
2024/03/12 11:24:53;;;;;;;33.00;22.10;;;;;;;7.88;100.00;95930.34;109052;1269;22542;-73
2024/03/12 11:27:28;;;;;;;32.30;21.40;;;;;;;7.87;100.00;95938.20;108764;1273;380249;-73
2024/03/12 11:30:14;;;;;;;29.30;20.30;;;;;;;7.98;100.00;95935.53;109071;1273;22492;-74
2024/03/12 11:32:52;;;;;;;30.20;19.60;;;;;;;8.11;100.00;95932.98;109100;1272;25407;-73
2024/03/12 11:35:34;;;;;;;27.50;18.60;;;;;;;8.19;100.00;95931.85;109051;1273;22627;-73
2024/03/12 11:38:06;;;;;;;34.50;22.60;;;;;;;8.16;100.00;95932.52;109071;1273;25237;-73
2024/03/12 11:40:47;;;;;;;31.20;21.70;;;;;;;8.09;100.00;95930.21;109068;1273;22510;-74
2024/03/12 11:43:41;;;;;;;29.60;19.50;;;;;;;8.18;100.00;95931.66;109076;1267;25293;-73
2024/03/12 11:46:25;;;;;;;29.30;19.10;;;;;;;8.17;100.00;95933.35;109047;1273;22494;-74
2024/03/12 11:49:06;;;;;;;29.60;19.70;;;;;;;8.17;100.00;95935.63;109055;1273;23320;-73